createdAt,value
2018-04-13T00:02:11.109Z,12.44
2018-04-13T00:04:40.416Z,12.47
2018-04-13T00:07:09.629Z,12.47
2018-04-13T00:09:38.871Z,12.47
2018-04-13T00:12:08.148Z,12.30
2018-04-13T00:14:37.550Z,12.23
2018-04-13T00:17:06.805Z,12.14
2018-04-13T00:19:36.071Z,12.13
2018-04-13T00:22:05.289Z,12.20
2018-04-13T00:24:35.266Z,12.20
2018-04-13T00:27:04.497Z,12.24
2018-04-13T00:29:34.532Z,12.24
2018-04-13T00:32:03.778Z,12.22
2018-04-13T00:34:33.000Z,12.23
2018-04-13T00:37:03.033Z,12.17
2018-04-13T00:39:33.030Z,12.11
2018-04-13T00:42:02.262Z,12.07
2018-04-13T00:44:31.469Z,12.02
2018-04-13T00:47:00.737Z,11.95
2018-04-13T00:49:30.754Z,11.86
2018-04-13T00:52:00.775Z,11.91
2018-04-13T00:54:29.979Z,11.94
2018-04-13T00:56:59.233Z,11.93
2018-04-13T00:59:28.446Z,11.98
2018-04-13T01:01:59.257Z,11.98
2018-04-13T01:04:28.491Z,11.98
2018-04-13T01:06:58.528Z,11.96
2018-04-13T01:09:27.757Z,11.93
2018-04-13T01:11:57.018Z,11.98
2018-04-13T01:14:27.044Z,12.01
2018-04-13T01:16:56.294Z,12.00
2018-04-13T01:19:25.657Z,12.02
2018-04-13T01:21:54.887Z,12.00
2018-04-13T01:24:24.364Z,12.01
2018-04-13T01:26:53.545Z,11.99
2018-04-13T01:29:22.782Z,11.99
2018-04-13T01:31:52.755Z,11.96
2018-04-13T01:34:21.980Z,11.94
2018-04-13T01:36:51.204Z,11.97
2018-04-13T01:39:20.466Z,11.98
2018-04-13T01:41:49.673Z,11.93
2018-04-13T01:44:18.954Z,11.88
2018-04-13T01:46:48.159Z,11.84
2018-04-13T01:49:17.396Z,11.85
2018-04-13T01:51:46.623Z,11.82
2018-04-13T01:54:16.658Z,11.83
2018-04-13T01:56:45.906Z,11.84
2018-04-13T01:59:15.146Z,11.74
2018-04-13T02:01:44.405Z,11.80
2018-04-13T02:04:13.655Z,11.78
2018-04-13T02:06:43.632Z,11.66
2018-04-13T02:09:12.870Z,11.66
2018-04-13T02:11:42.075Z,11.62
2018-04-13T02:14:11.301Z,11.63
2018-04-13T02:16:41.367Z,11.64
2018-04-13T02:19:11.359Z,11.57
2018-04-13T02:21:41.437Z,11.51
2018-04-13T02:24:10.642Z,11.51
2018-04-13T02:26:39.907Z,11.49
2018-04-13T02:29:09.125Z,11.43
2018-04-13T02:31:38.395Z,11.38
2018-04-13T02:34:08.361Z,11.35
2018-04-13T02:36:37.613Z,11.36
2018-04-13T02:39:06.834Z,11.31
2018-04-13T02:41:36.052Z,11.29
2018-04-13T02:44:05.265Z,11.29
2018-04-13T02:46:34.477Z,11.32
2018-04-13T02:49:04.515Z,11.33
2018-04-13T02:51:34.525Z,11.33
2018-04-13T02:54:04.520Z,11.25
2018-04-13T02:56:33.733Z,11.21
2018-04-13T02:59:03.758Z,11.28
2018-04-13T03:01:33.764Z,11.33
2018-04-13T03:04:03.749Z,11.24
2018-04-13T03:06:32.983Z,11.31
2018-04-13T03:09:02.983Z,11.31
2018-04-13T03:11:33.031Z,11.38
2018-04-13T03:14:02.292Z,11.43
2018-04-13T03:16:31.708Z,11.48
2018-04-13T03:19:01.725Z,11.45
2018-04-13T03:21:31.727Z,11.47
2018-04-13T03:24:01.768Z,11.45
2018-04-13T03:26:31.804Z,11.42
2018-04-13T03:29:01.014Z,11.41
2018-04-13T03:31:30.276Z,11.39
2018-04-13T03:34:00.261Z,11.37
2018-04-13T03:36:29.478Z,11.29
2018-04-13T03:38:59.527Z,11.27
2018-04-13T03:41:28.759Z,11.18
2018-04-13T03:43:58.710Z,11.20
2018-04-13T03:46:28.689Z,11.22
2018-04-13T03:48:57.933Z,11.20
2018-04-13T03:51:27.938Z,11.22
2018-04-13T03:53:57.435Z,11.25
2018-04-13T03:56:26.686Z,11.25
2018-04-13T03:58:56.666Z,11.22
2018-04-13T04:01:25.941Z,11.18
2018-04-13T04:03:55.166Z,11.17
2018-04-13T04:06:24.629Z,11.14
2018-04-13T04:08:53.878Z,11.11
2018-04-13T04:11:23.116Z,11.11
2018-04-13T04:13:52.373Z,11.04
2018-04-13T04:16:22.395Z,11.03
2018-04-13T04:18:51.639Z,11.01
2018-04-13T04:24:47.266Z,10.94
2018-04-13T04:27:16.476Z,10.86
2018-04-13T04:29:45.750Z,10.81
2018-04-13T04:32:14.970Z,10.78
2018-04-13T04:34:44.227Z,10.80
2018-04-13T04:37:13.488Z,10.79
2018-04-13T04:39:42.666Z,10.75
2018-04-13T04:42:11.934Z,10.74
2018-04-13T04:44:42.010Z,10.74
2018-04-13T04:47:11.254Z,10.77
2018-04-13T04:49:40.481Z,10.76
2018-04-13T04:52:09.713Z,10.76
2018-04-13T04:54:39.701Z,10.79
2018-04-13T04:57:08.909Z,10.81
2018-04-13T04:59:38.976Z,10.82
2018-04-13T05:02:09.029Z,10.74
2018-04-13T05:04:38.248Z,10.73
2018-04-13T05:07:08.092Z,10.72
2018-04-13T05:09:37.301Z,10.79
2018-04-13T05:12:06.559Z,10.87
2018-04-13T05:14:35.730Z,10.89
2018-04-13T05:17:05.564Z,10.89
2018-04-13T05:19:35.677Z,10.82
2018-04-13T05:22:05.053Z,10.87
2018-04-13T05:24:34.291Z,10.94
2018-04-13T05:27:04.320Z,11.04
2018-04-13T05:29:33.524Z,11.12
2018-04-13T05:32:02.786Z,11.18
2018-04-13T05:34:32.031Z,11.21
2018-04-13T05:37:01.244Z,11.32
2018-04-13T05:39:30.468Z,11.38
2018-04-13T05:41:59.700Z,11.41
2018-04-13T05:44:28.954Z,11.48
2018-04-13T05:46:58.174Z,11.57
2018-04-13T05:49:28.190Z,11.64
2018-04-13T05:51:57.398Z,11.71
2018-04-13T05:54:27.405Z,11.79
2018-04-13T05:56:56.793Z,11.88
2018-04-13T05:59:26.016Z,11.88
2018-04-13T06:01:55.215Z,11.93
2018-04-13T06:04:25.248Z,12.01
2018-04-13T06:06:54.629Z,12.05
2018-04-13T06:09:24.645Z,12.07
2018-04-13T06:11:53.846Z,12.09
2018-04-13T06:14:23.859Z,12.16
2018-04-13T06:16:53.069Z,12.23
2018-04-13T06:19:23.086Z,12.30
2018-04-13T06:21:53.057Z,12.40
2018-04-13T06:24:22.350Z,12.48
2018-04-13T06:26:52.273Z,12.58
2018-04-13T06:29:21.476Z,12.66
2018-04-13T06:31:50.776Z,12.71
2018-04-13T06:34:20.112Z,12.79
2018-04-13T06:36:50.109Z,12.78
2018-04-13T06:39:19.312Z,12.80
2018-04-13T06:41:48.557Z,12.87
2018-04-13T06:44:17.802Z,12.97
2018-04-13T06:46:47.068Z,13.05
2018-04-13T06:49:16.242Z,13.13
2018-04-13T06:51:45.480Z,13.22
2018-04-13T06:54:14.678Z,13.27
2018-04-13T06:56:43.970Z,13.25
2018-04-13T06:59:13.409Z,13.32
2018-04-13T07:01:43.400Z,13.37
2018-04-13T07:04:12.620Z,13.34
2018-04-13T07:06:42.737Z,13.42
2018-04-13T07:09:12.737Z,13.52
2018-04-13T07:11:41.964Z,13.55
2018-04-13T07:14:11.962Z,13.72
2018-04-13T07:16:41.958Z,13.88
2018-04-13T07:19:11.184Z,13.98
2018-04-13T07:21:41.169Z,14.06
2018-04-13T07:24:10.398Z,14.13
2018-04-13T07:26:40.436Z,14.23
2018-04-13T07:29:09.610Z,14.28
2018-04-13T07:31:39.608Z,14.34
2018-04-13T07:34:08.974Z,14.43
2018-04-13T07:36:38.222Z,14.48
2018-04-13T07:39:08.223Z,14.51
2018-04-13T07:41:37.457Z,14.53
2018-04-13T07:44:06.680Z,14.55
2018-04-13T07:46:35.893Z,14.65
2018-04-13T07:49:06.120Z,14.68
2018-04-13T07:51:35.178Z,14.70
2018-04-13T07:54:04.502Z,14.77
2018-04-13T07:56:33.705Z,14.80
2018-04-13T07:59:02.950Z,14.86
2018-04-13T08:01:32.968Z,14.90
2018-04-13T08:04:02.994Z,14.96
2018-04-13T08:06:32.224Z,14.99
2018-04-13T08:09:01.438Z,15.07
2018-04-13T08:11:30.677Z,15.11
2018-04-13T08:14:00.000Z,15.09
2018-04-13T08:16:29.117Z,15.06
2018-04-13T08:18:58.329Z,15.08
2018-04-13T08:21:27.613Z,15.13
2018-04-13T08:23:56.854Z,15.25
2018-04-13T08:26:26.117Z,15.31
2018-04-13T08:28:55.317Z,15.34
2018-04-13T08:31:25.338Z,15.29
2018-04-13T08:33:55.313Z,15.27
2018-04-13T08:36:25.022Z,15.24
2018-04-13T08:38:54.985Z,15.20
2018-04-13T08:41:24.320Z,15.26
2018-04-13T08:43:53.485Z,15.18
2018-04-13T08:46:22.762Z,15.29
2018-04-13T08:48:52.228Z,15.35
2018-04-13T08:51:22.019Z,15.47
2018-04-13T08:53:52.058Z,15.54
2018-04-13T08:56:22.093Z,15.63
2018-04-13T08:58:51.322Z,15.70
2018-04-13T09:01:20.537Z,15.77
2018-04-13T09:03:49.767Z,15.74
2018-04-13T09:06:19.014Z,15.59
2018-04-13T09:08:48.275Z,15.54
2018-04-13T09:11:17.497Z,15.46
2018-04-13T09:13:46.710Z,15.45
2018-04-13T09:16:15.929Z,15.40
2018-04-13T09:18:45.153Z,15.34
2018-04-13T09:21:15.247Z,15.25
2018-04-13T09:23:44.697Z,15.15
2018-04-13T09:26:14.711Z,15.22
2018-04-13T09:28:43.934Z,15.35
2018-04-13T09:31:13.151Z,15.40
2018-04-13T09:33:42.409Z,15.49
2018-04-13T09:36:11.628Z,15.53
2018-04-13T09:38:40.890Z,15.45
2018-04-13T09:41:10.102Z,15.45
2018-04-13T09:43:39.333Z,15.51
2018-04-13T09:46:08.579Z,15.47
2018-04-13T09:48:37.766Z,15.51
2018-04-13T09:51:07.012Z,15.61
2018-04-13T09:53:36.257Z,15.61
2018-04-13T09:56:06.246Z,15.54
2018-04-13T09:58:35.527Z,15.52
2018-04-13T10:01:04.770Z,15.52
2018-04-13T10:03:40.146Z,15.59
2018-04-13T10:06:09.376Z,15.61
2018-04-13T10:08:38.635Z,15.68
2018-04-13T10:11:07.881Z,15.72
2018-04-13T10:13:37.123Z,15.69
2018-04-13T10:16:06.323Z,15.70
2018-04-13T10:18:35.610Z,15.75
2018-04-13T10:21:05.602Z,15.77
2018-04-13T10:23:34.809Z,15.80
2018-04-13T10:26:04.800Z,15.73
2018-04-13T10:28:34.064Z,15.71
2018-04-13T10:31:03.277Z,15.77
2018-04-13T10:33:32.565Z,15.81
2018-04-13T10:36:01.767Z,15.86
2018-04-13T10:38:30.992Z,15.93
2018-04-13T10:41:00.589Z,15.99
2018-04-13T10:43:30.130Z,16.07
2018-04-13T10:46:00.145Z,16.07
2018-04-13T10:48:29.366Z,16.02
2018-04-13T10:50:58.617Z,15.95
2018-04-13T10:53:27.866Z,15.89
2018-04-13T10:55:57.297Z,15.70
2018-04-13T10:58:26.509Z,15.55
2018-04-13T11:00:55.738Z,15.52
2018-04-13T11:03:25.777Z,15.45
2018-04-13T11:05:55.014Z,15.51
2018-04-13T11:08:24.253Z,15.59
2018-04-13T11:10:54.337Z,15.63
2018-04-13T11:13:23.575Z,15.64
2018-04-13T11:15:53.570Z,15.53
2018-04-13T11:18:23.585Z,15.50
2018-04-13T11:20:52.907Z,15.49
2018-04-13T11:23:22.968Z,15.52
2018-04-13T11:25:52.197Z,15.43
2018-04-13T11:28:21.439Z,15.33
2018-04-13T11:30:50.671Z,15.34
2018-04-13T11:33:20.102Z,15.31
2018-04-13T11:35:49.920Z,15.24
2018-04-13T11:38:19.931Z,15.32
2018-04-13T11:40:49.135Z,15.34
2018-04-13T11:43:18.447Z,15.46
2018-04-13T11:45:47.618Z,15.52
2018-04-13T11:48:16.883Z,15.55
2018-04-13T11:50:46.101Z,15.56
2018-04-13T11:53:15.392Z,15.46
2018-04-13T11:55:44.610Z,15.48
2018-04-13T11:58:13.865Z,15.48
2018-04-13T12:00:43.084Z,15.52
2018-04-13T12:03:12.305Z,15.55
2018-04-13T12:05:41.551Z,15.54
2018-04-13T12:08:11.512Z,15.48
2018-04-13T12:10:41.586Z,15.38
2018-04-13T12:13:10.809Z,15.29
2018-04-13T12:15:40.115Z,15.25
2018-04-13T12:18:09.318Z,15.30
2018-04-13T12:20:39.202Z,15.28
2018-04-13T12:23:08.437Z,15.35
2018-04-13T12:25:37.705Z,15.33
2018-04-13T12:28:06.938Z,15.34
2018-04-13T12:30:36.967Z,15.43
2018-04-13T12:33:06.203Z,15.48
2018-04-13T12:35:35.443Z,15.45
2018-04-13T12:38:04.648Z,15.48
2018-04-13T12:40:33.874Z,15.51
2018-04-13T12:43:03.074Z,15.46
2018-04-13T12:45:32.319Z,15.54
2018-04-13T12:48:01.526Z,15.49
2018-04-13T12:50:30.772Z,15.60
2018-04-13T12:53:00.746Z,15.76
2018-04-13T12:55:30.034Z,15.81
2018-04-13T12:57:59.205Z,15.81
2018-04-13T13:00:28.437Z,15.78
2018-04-13T13:02:57.671Z,15.74
2018-04-13T13:18:26.917Z,15.30
2018-04-13T13:20:56.142Z,15.28
2018-04-13T13:23:25.434Z,15.30
2018-04-13T13:25:54.647Z,15.26
2018-04-13T13:28:23.893Z,15.24
2018-04-13T13:30:53.128Z,15.17
2018-04-13T13:33:23.145Z,15.14
2018-04-13T13:35:53.798Z,15.07
2018-04-13T13:38:23.899Z,15.16
2018-04-13T13:40:53.916Z,15.20
2018-04-13T13:43:23.970Z,15.19
2018-04-13T13:45:53.204Z,15.22
2018-04-13T13:48:22.470Z,15.23
2018-04-13T14:03:51.734Z,14.73
2018-04-13T14:06:20.983Z,14.82
2018-04-13T14:08:50.267Z,14.79
2018-04-13T14:11:19.502Z,14.83
2018-04-13T14:13:48.770Z,14.85
2018-04-13T14:16:17.997Z,14.86
2018-04-13T14:18:47.232Z,14.87
2018-04-13T14:21:16.724Z,14.90
2018-04-13T14:23:46.418Z,14.86
2018-04-13T14:26:16.411Z,14.89
2018-04-13T14:28:45.658Z,14.82
2018-04-13T14:31:14.899Z,14.84
2018-04-13T14:33:44.166Z,14.87
2018-04-13T14:36:13.410Z,14.96
2018-04-13T14:38:42.692Z,15.02
2018-04-13T14:41:11.917Z,15.01
2018-04-13T14:43:41.915Z,14.98
2018-04-13T14:46:11.181Z,14.98
2018-04-13T14:48:40.450Z,14.98
2018-04-13T14:51:10.439Z,14.98
2018-04-13T14:53:40.418Z,14.99
2018-04-13T14:56:09.646Z,15.01
2018-04-13T14:58:38.909Z,15.08
2018-04-13T15:01:08.180Z,15.06
2018-04-13T15:03:37.446Z,15.04
2018-04-13T15:06:06.695Z,15.04
2018-04-13T15:08:35.954Z,15.07
2018-04-13T15:11:05.998Z,15.08
2018-04-13T15:13:35.248Z,15.07
2018-04-13T15:16:05.267Z,15.07
2018-04-13T15:18:34.528Z,15.11
2018-04-13T15:21:04.685Z,15.12
2018-04-13T15:23:33.909Z,15.12
2018-04-13T15:26:03.937Z,15.11
2018-04-13T15:28:33.185Z,15.14
2018-04-13T15:31:02.451Z,15.10
2018-04-13T15:33:31.708Z,15.13
2018-04-13T15:36:01.723Z,15.18
2018-04-13T15:38:30.969Z,15.17
2018-04-13T15:41:00.198Z,15.20
2018-04-13T15:43:29.427Z,15.20
2018-04-13T15:45:59.450Z,15.20
2018-04-13T15:48:29.462Z,15.27
2018-04-13T15:50:59.637Z,15.25
2018-04-13T15:53:28.849Z,15.15
2018-04-13T15:55:58.205Z,15.17
2018-04-13T15:58:28.170Z,15.18
2018-04-13T16:00:57.536Z,15.11
2018-04-13T16:03:26.752Z,15.17
2018-04-13T16:05:56.014Z,15.16
2018-04-13T16:08:25.234Z,15.17
2018-04-13T16:10:54.481Z,15.17
2018-04-13T16:13:24.090Z,15.10
2018-04-13T16:15:54.100Z,15.10
2018-04-13T16:18:23.357Z,15.04
2018-04-13T16:20:52.627Z,15.03
2018-04-13T16:23:22.614Z,15.02
2018-04-13T16:25:52.676Z,15.02
2018-04-13T16:28:22.662Z,14.99
2018-04-13T16:30:51.898Z,14.98
2018-04-13T16:33:21.241Z,14.96
2018-04-13T16:35:50.519Z,14.96
2018-04-13T16:38:19.764Z,14.95
2018-04-13T16:40:49.762Z,14.92
2018-04-13T16:43:19.755Z,14.86
2018-04-13T16:45:49.029Z,14.88
2018-04-13T16:48:18.262Z,14.86
2018-04-13T16:50:47.573Z,14.82
2018-04-13T16:53:17.563Z,14.86
2018-04-13T16:55:46.809Z,14.92
2018-04-13T16:58:16.084Z,14.88
2018-04-13T17:00:46.073Z,14.89
2018-04-13T17:03:15.363Z,14.84
2018-04-13T17:05:44.603Z,14.78
2018-04-13T17:08:14.646Z,14.76
2018-04-13T17:10:44.639Z,14.76
2018-04-13T17:13:14.638Z,14.72
2018-04-13T17:15:43.936Z,14.75
2018-04-13T17:18:13.199Z,14.73
2018-04-13T17:20:42.463Z,14.70
2018-04-13T17:23:12.492Z,14.66
2018-04-13T17:25:41.733Z,14.65
2018-04-13T17:28:10.938Z,14.67
2018-04-13T17:30:41.077Z,14.65
2018-04-13T17:33:11.070Z,14.69
2018-04-13T17:35:40.305Z,14.73
2018-04-13T17:38:09.713Z,14.71
2018-04-13T17:40:39.714Z,14.71
2018-04-13T17:43:08.982Z,14.67
2018-04-13T17:45:38.202Z,14.66
2018-04-13T17:48:08.547Z,14.66
2018-04-13T17:50:38.552Z,14.62
2018-04-13T17:53:07.820Z,14.63
2018-04-13T17:55:37.114Z,14.57
2018-04-13T17:58:06.321Z,14.56
2018-04-13T18:00:35.808Z,14.56
2018-04-13T18:03:05.066Z,14.53
2018-04-13T18:05:34.309Z,14.51
2018-04-13T18:08:03.593Z,14.51
2018-04-13T18:10:32.890Z,14.53
2018-04-13T18:13:02.177Z,14.56
2018-04-13T18:15:32.129Z,14.53
2018-04-13T18:18:01.414Z,14.53
2018-04-13T18:20:30.642Z,14.50
2018-04-13T18:23:00.687Z,14.45
2018-04-13T18:25:29.916Z,14.43
2018-04-13T18:27:59.131Z,14.43
2018-04-13T18:30:28.364Z,14.44
2018-04-13T18:32:57.657Z,14.42
2018-04-13T18:35:26.873Z,14.36
2018-04-13T18:37:56.133Z,14.37
2018-04-13T18:40:25.380Z,14.35
2018-04-13T18:42:54.633Z,14.33
2018-04-13T18:45:23.865Z,14.33
2018-04-13T18:47:53.112Z,14.31
2018-04-13T18:50:22.327Z,14.35
2018-04-13T18:52:51.564Z,14.31
2018-04-13T18:55:21.534Z,14.33
2018-04-13T18:57:50.844Z,14.30
2018-04-13T19:00:20.077Z,14.25
2018-04-13T19:02:49.322Z,14.26
2018-04-13T19:05:18.580Z,14.19
2018-04-13T19:07:47.846Z,14.16
2018-04-13T19:10:17.905Z,14.13
2018-04-13T19:12:47.127Z,14.18
2018-04-13T19:15:16.369Z,14.17
2018-04-13T19:17:45.602Z,14.12
2018-04-13T19:20:14.978Z,14.10
2018-04-13T19:22:44.189Z,14.16
2018-04-13T19:25:13.501Z,14.16
2018-04-13T19:27:42.741Z,14.17
2018-04-13T19:30:12.000Z,14.13
2018-04-13T19:32:41.237Z,14.09
2018-04-13T19:35:10.526Z,14.10
2018-04-13T19:37:39.774Z,14.13
2018-04-13T19:40:09.801Z,14.14
2018-04-13T19:42:38.986Z,14.10
2018-04-13T19:45:09.005Z,14.08
2018-04-13T19:47:38.262Z,14.10
2018-04-13T19:50:07.503Z,14.08
2018-04-13T19:52:36.748Z,14.07
2018-04-13T19:55:06.033Z,14.07
2018-04-13T19:57:35.258Z,14.04
2018-04-13T20:00:04.532Z,14.03
2018-04-13T20:02:33.742Z,14.04
2018-04-13T20:05:03.023Z,14.03
2018-04-13T20:07:32.231Z,14.05
2018-04-13T20:10:01.478Z,14.06
2018-04-13T20:12:31.478Z,13.96
2018-04-13T20:15:01.511Z,13.97
2018-04-13T20:17:31.549Z,13.98
2018-04-13T20:20:00.763Z,13.98
2018-04-13T20:22:30.030Z,14.01
2018-04-13T20:24:59.870Z,14.03
2018-04-13T20:27:29.104Z,14.01
2018-04-13T20:29:59.150Z,14.01
2018-04-13T20:32:29.183Z,13.98
2018-04-13T20:34:58.711Z,13.98
2018-04-13T20:37:28.001Z,13.91
2018-04-13T20:39:57.236Z,13.95
2018-04-13T20:42:26.511Z,13.93
2018-04-13T20:44:55.763Z,13.87
2018-04-13T20:47:25.771Z,13.84
2018-04-13T20:49:55.024Z,13.83
2018-04-13T20:52:24.272Z,13.81
2018-04-13T20:54:53.724Z,13.83
2018-04-13T20:57:22.921Z,13.85
2018-04-13T20:59:52.199Z,13.80
2018-04-13T21:02:21.467Z,13.76
2018-04-13T21:04:50.702Z,13.72
2018-04-13T21:07:19.952Z,13.75
2018-04-13T21:09:49.198Z,13.74
2018-04-13T21:12:18.930Z,13.71
2018-04-13T21:14:48.183Z,13.71
2018-04-13T21:17:18.191Z,13.64
2018-04-13T21:19:48.182Z,13.67
2018-04-13T21:22:17.433Z,13.70
2018-04-13T21:24:46.695Z,13.70
2018-04-13T21:27:16.395Z,13.69
2018-04-13T21:29:45.716Z,13.67
2018-04-13T21:32:15.849Z,13.69
2018-04-13T21:34:45.080Z,13.65
2018-04-13T21:37:14.376Z,13.71
2018-04-13T21:39:43.614Z,13.67
2018-04-13T21:42:12.859Z,13.67
2018-04-13T21:44:42.081Z,13.66
2018-04-13T21:47:11.313Z,13.66
2018-04-13T21:49:41.300Z,13.64
2018-04-13T21:52:10.532Z,13.63
2018-04-13T21:54:41.447Z,13.62
2018-04-13T21:57:10.703Z,13.61
2018-04-13T21:59:40.170Z,13.59
2018-04-13T22:02:10.172Z,13.54
2018-04-13T22:04:39.402Z,13.52
2018-04-13T22:07:08.673Z,13.54
2018-04-13T22:09:38.035Z,13.54
2018-04-13T22:25:42.655Z,13.49
2018-04-13T22:28:11.879Z,13.49
2018-04-13T22:30:41.094Z,13.46
2018-04-13T22:33:11.115Z,13.48
2018-04-13T22:35:41.106Z,13.40
2018-04-13T22:38:10.349Z,13.41
2018-04-13T22:40:39.602Z,13.39
2018-04-13T22:43:08.844Z,13.39
2018-04-13T22:45:38.941Z,13.34
2018-04-13T22:48:08.945Z,13.33
2018-04-13T22:50:38.158Z,13.32
2018-04-13T22:53:08.192Z,13.32
2018-04-13T22:55:37.456Z,13.28
2018-04-13T22:58:06.696Z,13.24
2018-04-13T23:00:36.649Z,13.20
2018-04-13T23:03:05.865Z,13.16
2018-04-13T23:05:35.084Z,13.12
2018-04-13T23:08:04.326Z,13.09
2018-04-13T23:10:33.746Z,13.05
2018-04-13T23:13:02.938Z,13.03
2018-04-13T23:15:32.183Z,13.00
2018-04-13T23:18:01.403Z,12.99
2018-04-13T23:20:30.672Z,12.98
2018-04-13T23:23:00.669Z,12.95
2018-04-13T23:25:29.926Z,12.93
2018-04-13T23:27:59.166Z,12.92
2018-04-13T23:30:28.435Z,12.91
2018-04-13T23:32:57.663Z,12.93
2018-04-13T23:35:26.928Z,12.89
2018-04-13T23:37:56.144Z,12.89
2018-04-13T23:40:25.419Z,12.89
2018-04-13T23:42:54.665Z,12.88
2018-04-13T23:45:24.690Z,12.86
2018-04-13T23:47:53.942Z,12.89
2018-04-13T23:50:23.213Z,12.87
2018-04-13T23:52:52.473Z,12.86
2018-04-13T23:55:22.456Z,12.86
2018-04-13T23:57:51.701Z,12.88
